Terminal Aerodrome Forecast
Issued by NWS

Home | Current Version | Previous Version | Text Only | Print | Product List | Glossary On
Versions: 1 2 3 4 5 6 7 8 9 10 11 12 13 14 15 16 17 18 19 20 21 22 23 24
734
FTUS41 KPBZ 120537
TAFAGC
TAF
KAGC 120537Z 1206/1306 00000KT P6SM SKC
     FM121800 25008KT 5SM -SN BKN025 OVC030
     FM130100 28015G28KT 4SM -SHSN BKN015 PROB30 1301/1304 1SM -SHSN
      BKN007=

USA.gov is the U.S. government's official web portal to all federal, state and local government web resources and services.